Time;durP1;ratioP1;P1;durP2;ratioP2;P2;SDS_P1;SDS_P2;PMS_P1;PMS_P2;Temp;Humidity;BMP_temperature;BMP_pressure;BME280_temperature;BME280_humidity;BME280_pressure;Samples;Min_cycle;Max_cycle;Signal;HPM_P1;HPM_P2
2022/11/12 00:01:13;;;;;;;6.95;6.35;;;;;;;;;;6197083;23;20567;-79
2022/11/12 00:03:39;;;;;;;7.35;6.35;;;;;;;;;;6198349;23;20007;-78
2022/11/12 00:06:05;;;;;;;7.18;6.45;;;;;;;;;;6197571;23;20127;-79
2022/11/12 00:08:31;;;;;;;8.15;6.78;;;;;;;;;;6198229;23;20001;-79
2022/11/12 00:10:58;;;;;;;8.05;6.30;;;;;;;;;;6197174;23;20000;-78
2022/11/12 00:13:24;;;;;;;9.88;6.78;;;;;;;;;;6199832;23;20036;-79
2022/11/12 00:15:50;;;;;;;8.35;5.97;;;;;;;;;;6198226;23;20017;-79
2022/11/12 00:18:16;;;;;;;6.60;5.97;;;;;;;;;;6198248;23;20733;-79
2022/11/12 00:20:43;;;;;;;6.32;5.70;;;;;;;;;;6196794;23;20007;-79
2022/11/12 00:23:09;;;;;;;6.00;5.38;;;;;;;;;;6197965;23;20008;-78
2022/11/12 00:25:35;;;;;;;6.57;5.68;;;;;;;;;;6198841;23;20100;-79
2022/11/12 00:28:02;;;;;;;6.05;5.25;;;;;;;;;;6197292;23;20008;-79
2022/11/12 00:30:28;;;;;;;7.55;4.90;;;;;;;;;;6198426;23;20008;-79
2022/11/12 00:32:55;;;;;;;7.18;6.47;;;;;;;;;;6195036;23;20023;-78
2022/11/12 00:35:21;;;;;;;6.82;5.30;;;;;;;;;;6198448;23;20019;-79
2022/11/12 00:37:47;;;;;;;5.97;5.38;;;;;;;;;;6198420;23;20001;-79
2022/11/12 00:40:13;;;;;;;5.45;4.95;;;;;;;;;;6198523;23;20009;-80
2022/11/12 00:42:39;;;;;;;4.93;4.50;;;;;;;;;;6195925;23;20005;-79
2022/11/12 00:45:05;;;;;;;5.00;4.50;;;;;;;;;;6195759;23;20011;-79
2022/11/12 00:47:31;;;;;;;7.43;4.70;;;;;;;;;;6198601;23;20449;-78
2022/11/12 00:49:57;;;;;;;5.45;4.53;;;;;;;;;;6195677;23;20008;-79
2022/11/12 00:52:24;;;;;;;5.75;4.47;;;;;;;;;;6197698;23;20015;-79
2022/11/12 00:54:50;;;;;;;7.18;4.65;;;;;;;;;;6197442;23;20020;-79
2022/11/12 00:57:16;;;;;;;5.53;4.40;;;;;;;;;;6198829;23;20010;-79
2022/11/12 00:59:42;;;;;;;5.43;4.82;;;;;;;;;;6172293;23;20004;-79
2022/11/12 01:02:08;;;;;;;4.70;4.20;;;;;;;;;;6197584;23;20005;-79
2022/11/12 01:04:34;;;;;;;4.50;4.10;;;;;;;;;;6195388;23;20004;-78
2022/11/12 01:07:00;;;;;;;5.57;3.70;;;;;;;;;;6197742;23;20004;-78
2022/11/12 01:09:26;;;;;;;7.18;4.28;;;;;;;;;;6198637;23;20008;-79
2022/11/12 01:11:52;;;;;;;4.57;4.18;;;;;;;;;;6197321;23;20000;-79
2022/11/12 01:14:19;;;;;;;4.53;4.10;;;;;;;;;;6196047;23;20036;-79
2022/11/12 01:16:45;;;;;;;4.97;4.10;;;;;;;;;;6197790;23;20011;-79
2022/11/12 01:19:12;;;;;;;9.48;4.38;;;;;;;;;;6198181;23;20324;-79
2022/11/12 01:21:40;;;;;;;5.63;4.38;;;;;;;;;;6198030;23;20012;-78
2022/11/12 01:24:06;;;;;;;4.00;3.60;;;;;;;;;;6197053;23;20032;-80
2022/11/12 01:26:32;;;;;;;4.63;3.92;;;;;;;;;;6197551;23;20004;-80
2022/11/12 01:28:58;;;;;;;5.78;3.88;;;;;;;;;;6194753;23;20001;-78
2022/11/12 01:31:30;;;;;;;4.65;3.92;;;;;;;;;;6197692;23;20008;-79
2022/11/12 01:34:01;;;;;;;4.78;3.72;;;;;;;;;;6197257;23;20012;-79
2022/11/12 01:36:27;;;;;;;5.40;3.88;;;;;;;;;;6198051;23;20012;-79
2022/11/12 01:38:55;;;;;;;4.15;3.75;;;;;;;;;;6198052;23;20026;-79
2022/11/12 01:41:23;;;;;;;4.65;3.70;;;;;;;;;;6197422;23;20008;-80
2022/11/12 01:44:09;;;;;;;4.00;3.65;;;;;;;;;;6193575;23;20011;-80
2022/11/12 01:46:40;;;;;;;4.20;3.80;;;;;;;;;;6197105;23;20448;-79
2022/11/12 01:49:10;;;;;;;6.35;4.13;;;;;;;;;;6197687;23;20005;-79
2022/11/12 01:51:39;;;;;;;4.00;3.60;;;;;;;;;;6197232;23;20017;-79
2022/11/12 01:54:07;;;;;;;4.30;3.90;;;;;;;;;;6195514;23;20020;-80
2022/11/12 01:56:33;;;;;;;4.63;3.70;;;;;;;;;;6198071;23;20071;-79
2022/11/12 01:59:05;;;;;;;5.10;3.95;;;;;;;;;;6198107;23;20011;-79
2022/11/12 02:01:31;;;;;;;4.05;3.63;;;;;;;;;;6197202;23;20024;-78
2022/11/12 02:03:58;;;;;;;5.85;3.80;;;;;;;;;;6197173;23;20581;-80
2022/11/12 02:06:24;;;;;;;4.40;3.67;;;;;;;;;;6196157;23;20005;-78
2022/11/12 02:08:51;;;;;;;4.57;3.83;;;;;;;;;;6197655;23;20439;-79
2022/11/12 02:11:18;;;;;;;4.40;3.70;;;;;;;;;;6197046;23;20069;-80
2022/11/12 02:13:58;;;;;;;4.03;3.58;;;;;;;;;;6196935;23;20008;-79
2022/11/12 02:16:32;;;;;;;4.25;3.85;;;;;;;;;;6197414;23;20040;-79
2022/11/12 02:18:58;;;;;;;3.92;3.53;;;;;;;;;;6171863;23;20004;-80
2022/11/12 02:21:25;;;;;;;4.22;3.83;;;;;;;;;;6172106;23;20017;-80
2022/11/12 02:24:17;;;;;;;5.32;3.40;;;;;;;;;;6199175;23;20513;-80
2022/11/12 02:26:45;;;;;;;7.10;3.55;;;;;;;;;;6154298;23;20004;-79
2022/11/12 02:29:11;;;;;;;4.53;3.88;;;;;;;;;;6198716;23;20008;-79
2022/11/12 02:31:37;;;;;;;3.17;2.80;;;;;;;;;;6199490;23;20024;-79
2022/11/12 02:34:04;;;;;;;3.72;3.15;;;;;;;;;;6196776;23;20043;-79
2022/11/12 02:36:30;;;;;;;3.75;3.13;;;;;;;;;;6199663;23;20013;-79
2022/11/12 02:38:56;;;;;;;3.53;3.15;;;;;;;;;;6199067;23;20004;-79
2022/11/12 02:41:23;;;;;;;4.28;3.10;;;;;;;;;;6199193;23;20012;-80
2022/11/12 02:43:49;;;;;;;4.88;3.42;;;;;;;;;;6194821;23;20009;-79
2022/11/12 02:46:15;;;;;;;6.07;3.15;;;;;;;;;;6199231;23;20695;-79
2022/11/12 02:48:41;;;;;;;3.60;3.13;;;;;;;;;;6200134;23;20076;-79
2022/11/12 02:51:07;;;;;;;5.13;3.25;;;;;;;;;;6197671;23;20068;-78
2022/11/12 02:53:34;;;;;;;6.00;3.47;;;;;;;;;;6197760;23;20016;-80
2022/11/12 02:56:00;;;;;;;3.65;2.90;;;;;;;;;;6200046;23;20016;-79
2022/11/12 02:58:27;;;;;;;3.20;2.90;;;;;;;;;;6200133;23;20008;-79
2022/11/12 03:00:53;;;;;;;3.47;2.80;;;;;;;;;;6201599;23;20024;-79
2022/11/12 03:03:19;;;;;;;3.70;2.83;;;;;;;;;;6201027;23;20005;-79
2022/11/12 03:05:46;;;;;;;3.38;2.92;;;;;;;;;;6202269;23;20011;-79
2022/11/12 03:08:12;;;;;;;4.07;2.88;;;;;;;;;;6200234;23;20028;-79
2022/11/12 03:10:39;;;;;;;3.00;2.70;;;;;;;;;;6201669;23;20063;-79
2022/11/12 03:13:05;;;;;;;3.05;2.60;;;;;;;;;;6201396;23;20420;-79
2022/11/12 03:15:32;;;;;;;4.30;2.58;;;;;;;;;;6201796;23;20433;-79
2022/11/12 03:17:58;;;;;;;4.78;2.90;;;;;;;;;;6199521;23;20318;-77
2022/11/12 03:20:25;;;;;;;3.80;2.88;;;;;;;;;;6201847;23;20016;-79
2022/11/12 03:22:58;;;;;;;7.25;3.22;;;;;;;;;;6202005;23;20084;-79
2022/11/12 03:25:25;;;;;;;3.30;2.78;;;;;;;;;;6199742;23;20028;-77
2022/11/12 03:28:02;;;;;;;5.40;2.80;;;;;;;;;;6198285;23;20546;-80
2022/11/12 03:30:29;;;;;;;2.90;2.50;;;;;;;;;;6198608;23;20008;-79
2022/11/12 03:32:55;;;;;;;4.00;2.95;;;;;;;;;;6198705;23;20007;-78
2022/11/12 03:35:22;;;;;;;4.07;3.47;;;;;;;;;;6196634;23;20027;-79
2022/11/12 03:37:49;;;;;;;3.25;2.70;;;;;;;;;;6198810;23;20020;-79
2022/11/12 03:40:15;;;;;;;4.85;2.65;;;;;;;;;;6198973;23;20012;-79
2022/11/12 03:42:48;;;;;;;2.95;2.65;;;;;;;;;;6198865;23;20012;-79
2022/11/12 03:45:15;;;;;;;3.47;3.17;;;;;;;;;;6193766;23;20216;-79
2022/11/12 03:47:46;;;;;;;4.45;2.40;;;;;;;;;;6198750;23;20008;-76
2022/11/12 03:50:13;;;;;;;4.22;2.53;;;;;;;;;;6198122;23;20016;-79
2022/11/12 03:52:39;;;;;;;4.32;3.10;;;;;;;;;;6199396;23;20012;-79
2022/11/12 03:55:05;;;;;;;3.60;2.65;;;;;;;;;;6198029;23;20091;-79
2022/11/12 03:57:32;;;;;;;3.97;2.55;;;;;;;;;;6196932;23;20062;-79
2022/11/12 03:59:58;;;;;;;2.95;2.65;;;;;;;;;;6198671;23;20011;-77
2022/11/12 04:02:25;;;;;;;3.60;2.70;;;;;;;;;;6198466;23;20004;-78
2022/11/12 04:10:21;;;;;;;3.35;2.55;;;;;;;;;;6197966;23;20031;-79
2022/11/12 04:15:31;;;;;;;6.45;3.00;;;;;;;;;;6197640;23;20031;-79
2022/11/12 04:23:27;;;;;;;4.13;2.70;;;;;;;;;;6197318;23;20019;-79
2022/11/12 04:28:38;;;;;;;3.53;2.85;;;;;;;;;;6199138;23;20236;-78
2022/11/12 04:31:04;;;;;;;3.17;2.47;;;;;;;;;;6171636;23;20449;-76
2022/11/12 04:33:30;;;;;;;2.58;2.38;;;;;;;;;;6200791;23;20032;-78
2022/11/12 04:35:57;;;;;;;6.78;2.70;;;;;;;;;;6200179;23;20342;-78
2022/11/12 04:38:23;;;;;;;3.25;2.92;;;;;;;;;;6201027;23;19997;-79
2022/11/12 04:46:18;;;;;;;3.08;2.60;;;;;;;;;;6200816;23;20015;-78
2022/11/12 04:48:44;;;;;;;2.70;2.50;;;;;;;;;;6201141;23;20028;-79
2022/11/12 04:53:56;;;;;;;3.90;2.63;;;;;;;;;;6200308;23;20047;-78
2022/11/12 04:56:22;;;;;;;3.50;2.75;;;;;;;;;;6197844;23;20333;-80
2022/11/12 04:58:48;;;;;;;5.32;2.88;;;;;;;;;;6199679;23;20027;-80
2022/11/12 05:01:14;;;;;;;3.50;2.50;;;;;;;;;;6200802;23;20005;-79
2022/11/12 05:03:40;;;;;;;2.67;2.35;;;;;;;;;;6199222;23;20373;-78
2022/11/12 05:06:50;;;;;;;4.13;2.90;;;;;;;;;;6174157;23;20024;-79
2022/11/12 05:08:53;;;;;;;4.35;2.78;;;;;;;;;;6200346;23;20610;-80
2022/11/12 05:11:19;;;;;;;4.20;2.53;;;;;;;;;;6200857;23;20001;-78
2022/11/12 05:13:45;;;;;;;3.45;2.72;;;;;;;;;;6200689;23;20016;-80
2022/11/12 05:16:11;;;;;;;3.30;2.90;;;;;;;;;;6198782;23;20115;-80
2022/11/12 05:18:37;;;;;;;3.50;2.72;;;;;;;;;;6200641;23;19997;-79
2022/11/12 05:22:04;;;;;;;3.90;3.50;;;;;;;;;;6200328;23;20008;-79
2022/11/12 05:23:49;;;;;;;3.22;2.92;;;;;;;;;;6200092;23;20127;-78
2022/11/12 05:26:15;;;;;;;3.25;2.70;;;;;;;;;;6200686;23;20058;-79
2022/11/12 05:28:41;;;;;;;4.38;2.60;;;;;;;;;;6200609;23;20008;-79
2022/11/12 05:31:08;;;;;;;3.40;2.63;;;;;;;;;;6197931;23;20299;-79
2022/11/12 05:33:34;;;;;;;5.60;2.85;;;;;;;;;;6199840;23;20348;-79
2022/11/12 05:36:00;;;;;;;3.88;3.03;;;;;;;;;;6198481;23;20020;-80
2022/11/12 05:38:26;;;;;;;3.00;2.70;;;;;;;;;;6198164;23;20005;-79
2022/11/12 05:40:52;;;;;;;3.47;2.80;;;;;;;;;;6197586;23;20464;-79
2022/11/12 05:43:18;;;;;;;3.97;2.53;;;;;;;;;;6198474;23;20001;-79
2022/11/12 05:45:44;;;;;;;3.97;2.80;;;;;;;;;;6196382;23;20472;-80
2022/11/12 05:48:11;;;;;;;4.20;3.10;;;;;;;;;;6195169;23;20004;-78
2022/11/12 05:50:37;;;;;;;4.60;3.20;;;;;;;;;;6197506;23;20083;-79
2022/11/12 05:53:03;;;;;;;5.57;3.10;;;;;;;;;;6197100;23;20007;-79
2022/11/12 05:55:30;;;;;;;3.67;2.75;;;;;;;;;;6197642;23;20012;-77
2022/11/12 05:57:56;;;;;;;3.47;2.95;;;;;;;;;;6195816;23;20007;-79
2022/11/12 06:00:22;;;;;;;4.70;2.92;;;;;;;;;;6146719;23;20433;-80
2022/11/12 06:02:48;;;;;;;3.00;2.70;;;;;;;;;;6197838;23;20011;-81
2022/11/12 06:05:14;;;;;;;4.68;3.10;;;;;;;;;;6197501;23;20766;-79
2022/11/12 06:07:41;;;;;;;3.30;3.00;;;;;;;;;;6197558;23;20055;-80
2022/11/12 06:10:07;;;;;;;3.92;3.20;;;;;;;;;;6197492;23;20346;-80
2022/11/12 06:12:33;;;;;;;3.72;3.03;;;;;;;;;;6194153;23;19997;-78
2022/11/12 06:14:59;;;;;;;3.78;3.08;;;;;;;;;;6196850;23;20020;-80
2022/11/12 06:17:25;;;;;;;3.13;2.83;;;;;;;;;;6198058;23;20048;-78
2022/11/12 06:19:51;;;;;;;3.17;2.88;;;;;;;;;;6197473;23;20062;-79
2022/11/12 06:22:17;;;;;;;4.72;3.70;;;;;;;;;;6196001;23;20004;-79
2022/11/12 06:24:44;;;;;;;4.50;3.15;;;;;;;;;;6197778;23;20005;-80
2022/11/12 06:27:10;;;;;;;5.07;3.40;;;;;;;;;;6197036;23;20015;-81
2022/11/12 06:29:37;;;;;;;3.92;3.30;;;;;;;;;;6198398;23;20156;-79
2022/11/12 06:32:03;;;;;;;3.38;3.08;;;;;;;;;;6198131;23;20083;-81
2022/11/12 06:34:29;;;;;;;4.00;3.60;;;;;;;;;;6195220;23;20044;-83
2022/11/12 06:36:55;;;;;;;4.47;3.30;;;;;;;;;;6197403;23;20009;-82
2022/11/12 06:39:21;;;;;;;4.45;3.42;;;;;;;;;;6197769;23;20075;-81
2022/11/12 06:41:48;;;;;;;5.05;3.40;;;;;;;;;;6197771;23;20083;-82
2022/11/12 06:44:14;;;;;;;4.25;3.85;;;;;;;;;;6195591;23;20001;-81
2022/11/12 06:46:40;;;;;;;3.58;3.25;;;;;;;;;;6197749;23;20015;-81
2022/11/12 06:49:06;;;;;;;5.32;3.97;;;;;;;;;;6195058;23;20016;-80
2022/11/12 06:51:32;;;;;;;3.40;3.10;;;;;;;;;;6197235;23;20012;-80
2022/11/12 06:53:58;;;;;;;4.18;3.20;;;;;;;;;;6197646;23;20036;-81
2022/11/12 06:56:24;;;;;;;4.25;3.13;;;;;;;;;;6196676;23;20012;-81
2022/11/12 06:58:50;;;;;;;3.38;3.08;;;;;;;;;;6197581;23;20715;-82
2022/11/12 07:01:17;;;;;;;4.43;3.28;;;;;;;;;;6197603;23;20100;-82
2022/11/12 07:03:44;;;;;;;5.25;3.75;;;;;;;;;;6198777;23;20005;-80
2022/11/12 07:06:14;;;;;;;4.25;3.85;;;;;;;;;;6199605;23;20016;-81
2022/11/12 07:08:40;;;;;;;4.35;3.58;;;;;;;;;;6197684;23;20060;-80
2022/11/12 07:11:07;;;;;;;3.80;3.50;;;;;;;;;;6198793;23;20020;-81
2022/11/12 07:13:34;;;;;;;5.82;3.28;;;;;;;;;;6172315;23;20349;-81
2022/11/12 07:16:00;;;;;;;4.95;3.58;;;;;;;;;;6197710;23;20008;-80
2022/11/12 07:18:27;;;;;;;3.75;2.97;;;;;;;;;;6197614;23;20009;-82
2022/11/12 07:21:00;;;;;;;3.72;3.00;;;;;;;;;;6197685;23;20012;-81
2022/11/12 07:23:27;;;;;;;4.20;3.40;;;;;;;;;;6198414;23;20022;-80
2022/11/12 07:26:00;;;;;;;4.53;3.30;;;;;;;;;;6197125;23;20015;-80
2022/11/12 07:28:27;;;;;;;4.03;3.45;;;;;;;;;;6196983;23;20005;-81
2022/11/12 07:31:03;;;;;;;6.05;3.50;;;;;;;;;;6197892;23;20058;-81
2022/11/12 07:33:30;;;;;;;4.70;3.30;;;;;;;;;;6171868;23;20018;-81
2022/11/12 07:36:02;;;;;;;4.07;3.67;;;;;;;;;;6198547;23;20024;-81
2022/11/12 07:38:29;;;;;;;16.48;4.60;;;;;;;;;;6198096;23;20092;-80
2022/11/12 07:41:01;;;;;;;3.95;3.40;;;;;;;;;;6198797;23;20039;-80
2022/11/12 07:43:34;;;;;;;5.55;3.42;;;;;;;;;;6199335;23;20007;-79
2022/11/12 07:46:04;;;;;;;3.75;3.15;;;;;;;;;;6199043;23;20012;-80
2022/11/12 07:48:31;;;;;;;4.38;3.08;;;;;;;;;;6196768;23;20012;-81
2022/11/12 07:51:03;;;;;;;3.33;3.03;;;;;;;;;;6197103;23;20009;-81
2022/11/12 07:53:29;;;;;;;5.43;3.67;;;;;;;;;;6198730;23;20000;-81
2022/11/12 07:55:57;;;;;;;4.20;3.10;;;;;;;;;;6197600;23;20404;-80
2022/11/12 07:58:23;;;;;;;3.20;2.90;;;;;;;;;;6197108;23;19997;-80
2022/11/12 08:00:50;;;;;;;4.63;3.30;;;;;;;;;;6199632;23;20306;-81
2022/11/12 08:03:16;;;;;;;5.45;3.55;;;;;;;;;;6198781;23;20464;-81
2022/11/12 08:05:42;;;;;;;4.05;3.33;;;;;;;;;;6199107;23;20429;-83
2022/11/12 08:08:09;;;;;;;4.20;3.67;;;;;;;;;;6195237;23;20019;-80
2022/11/12 08:10:36;;;;;;;4.53;3.80;;;;;;;;;;6198032;23;20341;-81
2022/11/12 08:13:02;;;;;;;5.50;4.28;;;;;;;;;;6195294;23;20019;-80
2022/11/12 08:15:28;;;;;;;4.22;3.80;;;;;;;;;;6197870;23;20019;-81
2022/11/12 08:17:54;;;;;;;5.60;3.80;;;;;;;;;;6196420;23;20401;-81
2022/11/12 08:20:20;;;;;;;4.68;3.45;;;;;;;;;;6197430;23;20480;-80
2022/11/12 08:22:47;;;;;;;5.68;4.07;;;;;;;;;;6195899;23;20005;-83
2022/11/12 08:25:14;;;;;;;3.78;3.30;;;;;;;;;;6197263;23;20552;-81
2022/11/12 08:27:40;;;;;;;4.13;3.72;;;;;;;;;;6197473;23;20449;-80
2022/11/12 08:30:06;;;;;;;4.53;4.00;;;;;;;;;;6169983;23;20005;-80
2022/11/12 08:32:33;;;;;;;4.43;3.85;;;;;;;;;;6196479;23;20008;-79
2022/11/12 08:34:59;;;;;;;5.38;3.58;;;;;;;;;;6196900;23;20020;-81
2022/11/12 08:37:25;;;;;;;4.40;4.00;;;;;;;;;;6197081;23;20000;-82
2022/11/12 08:39:51;;;;;;;4.38;3.97;;;;;;;;;;6197890;23;20011;-83
2022/11/12 08:42:17;;;;;;;4.25;3.47;;;;;;;;;;6195857;23;19997;-82
2022/11/12 08:44:43;;;;;;;4.72;3.97;;;;;;;;;;6197647;23;20027;-82
2022/11/12 08:47:10;;;;;;;5.28;3.17;;;;;;;;;;6197287;23;20016;-82
2022/11/12 08:49:36;;;;;;;3.47;3.17;;;;;;;;;;6195123;23;20009;-81
2022/11/12 08:52:02;;;;;;;3.50;3.20;;;;;;;;;;6196901;23;19996;-81
2022/11/12 08:54:29;;;;;;;5.28;3.42;;;;;;;;;;6195481;23;20023;-81
2022/11/12 08:56:55;;;;;;;4.82;3.38;;;;;;;;;;6197490;23;20074;-73
2022/11/12 08:59:21;;;;;;;4.57;3.33;;;;;;;;;;6198111;23;20013;-81
2022/11/12 09:01:47;;;;;;;3.88;2.90;;;;;;;;;;6197067;23;20662;-81
2022/11/12 09:04:13;;;;;;;3.35;3.05;;;;;;;;;;6196563;23;20000;-79
2022/11/12 09:06:39;;;;;;;3.58;3.25;;;;;;;;;;6195356;23;20004;-80
2022/11/12 09:09:06;;;;;;;3.28;2.97;;;;;;;;;;6197328;23;20108;-81
2022/11/12 09:11:32;;;;;;;4.05;3.58;;;;;;;;;;6197040;23;20016;-80
2022/11/12 09:13:58;;;;;;;3.58;3.13;;;;;;;;;;6196367;23;20001;-81
2022/11/12 09:16:24;;;;;;;3.75;3.25;;;;;;;;;;6197288;23;20020;-81
2022/11/12 09:18:50;;;;;;;4.13;2.97;;;;;;;;;;6195170;23;20491;-82
2022/11/12 09:21:18;;;;;;;6.35;3.90;;;;;;;;;;6197595;23;20005;-81
2022/11/12 09:23:44;;;;;;;4.60;3.47;;;;;;;;;;6197252;23;20032;-81
2022/11/12 09:26:10;;;;;;;5.38;4.05;;;;;;;;;;6196072;23;20013;-80
2022/11/12 09:28:36;;;;;;;5.32;3.55;;;;;;;;;;6195478;23;20004;-81
2022/11/12 09:31:02;;;;;;;7.00;6.00;;;;;;;;;;6196944;23;20009;-81
2022/11/12 09:33:32;;;;;;;6.22;5.28;;;;;;;;;;6197686;23;20413;-81
2022/11/12 09:36:02;;;;;;;5.40;4.57;;;;;;;;;;6196780;23;20042;-81
2022/11/12 09:38:28;;;;;;;4.07;3.67;;;;;;;;;;6195585;23;20610;-80
2022/11/12 09:40:57;;;;;;;4.47;3.28;;;;;;;;;;6197464;23;20712;-80
2022/11/12 09:43:24;;;;;;;6.10;3.42;;;;;;;;;;6197510;23;20015;-78
2022/11/12 09:45:51;;;;;;;3.97;3.38;;;;;;;;;;6197581;23;20346;-78
2022/11/12 09:48:25;;;;;;;5.72;3.42;;;;;;;;;;6192771;23;20074;-76
2022/11/12 09:50:59;;;;;;;3.67;3.10;;;;;;;;;;6197033;23;20000;-80
2022/11/12 09:53:44;;;;;;;4.07;3.25;;;;;;;;;;6197817;23;20306;-76
2022/11/12 09:56:12;;;;;;;4.13;2.70;;;;;;;;;;6196391;23;20017;-79
2022/11/12 09:58:38;;;;;;;4.00;2.97;;;;;;;;;;6195880;23;20001;-80
2022/11/12 10:01:10;;;;;;;3.22;2.90;;;;;;;;;;6195839;23;20005;-79
2022/11/12 10:03:46;;;;;;;4.88;3.22;;;;;;;;;;6197360;23;20012;-78
2022/11/12 10:06:16;;;;;;;4.55;3.45;;;;;;;;;;6197065;23;20063;-79
2022/11/12 10:08:50;;;;;;;3.78;3.22;;;;;;;;;;6197222;23;20001;-80
2022/11/12 10:11:16;;;;;;;3.72;2.90;;;;;;;;;;6195424;23;20008;-80
2022/11/12 10:13:49;;;;;;;6.65;3.33;;;;;;;;;;6198490;23;20015;-78
2022/11/12 10:19:29;;;;;;;3.83;3.10;;;;;;;;;;6197412;23;20023;-79
2022/11/12 10:21:55;;;;;;;3.35;3.05;;;;;;;;;;6184303;23;20004;-78
2022/11/12 10:24:23;;;;;;;5.32;3.50;;;;;;;;;;6199291;23;19993;-79
2022/11/12 10:26:49;;;;;;;4.93;3.22;;;;;;;;;;6200061;23;20041;-84
2022/11/12 10:29:44;;;;;;;5.25;3.50;;;;;;;;;;6198502;23;20001;-77
2022/11/12 10:32:12;;;;;;;4.90;3.50;;;;;;;;;;6144854;23;20013;-75
2022/11/12 10:34:39;;;;;;;4.72;3.38;;;;;;;;;;6196930;23;20346;-74
2022/11/12 10:37:13;;;;;;;3.55;3.00;;;;;;;;;;6197725;23;20434;-75
2022/11/12 10:39:46;;;;;;;8.25;3.30;;;;;;;;;;6198887;23;20050;-75
2022/11/12 10:42:16;;;;;;;6.47;3.45;;;;;;;;;;6196312;23;20011;-74
2022/11/12 10:44:43;;;;;;;4.50;3.75;;;;;;;;;;6198732;23;20040;-74
2022/11/12 10:47:21;;;;;;;4.45;3.55;;;;;;;;;;6198975;23;20369;-75
2022/11/12 10:50:05;;;;;;;6.88;3.53;;;;;;;;;;6199284;23;20175;-75
2022/11/12 10:52:32;;;;;;;5.15;4.35;;;;;;;;;;6199121;23;20009;-74
2022/11/12 10:55:13;;;;;;;3.97;3.53;;;;;;;;;;6198069;23;20072;-75
2022/11/12 10:57:39;;;;;;;4.88;3.42;;;;;;;;;;6197985;23;20003;-75
2022/11/12 11:00:25;;;;;;;6.18;3.22;;;;;;;;;;6198397;23;20453;-75
2022/11/12 11:02:53;;;;;;;7.15;3.65;;;;;;;;;;6200860;23;19997;-75
2022/11/12 11:05:34;;;;;;;5.40;3.55;;;;;;;;;;6200533;23;20008;-75
2022/11/12 11:08:00;;;;;;;4.30;3.42;;;;;;;;;;6201414;23;19997;-74
2022/11/12 11:10:29;;;;;;;5.18;3.80;;;;;;;;;;6199210;23;20029;-74
2022/11/12 11:13:14;;;;;;;4.88;3.63;;;;;;;;;;6200986;23;20094;-75
2022/11/12 11:15:40;;;;;;;5.60;3.47;;;;;;;;;;6201139;23;20434;-74
2022/11/12 11:18:10;;;;;;;3.67;3.28;;;;;;;;;;6200802;23;20350;-75
2022/11/12 11:20:50;;;;;;;6.55;3.92;;;;;;;;;;6201516;23;20012;-75
2022/11/12 11:23:27;;;;;;;4.20;3.50;;;;;;;;;;6200195;23;20004;-74
2022/11/12 11:25:54;;;;;;;5.63;3.53;;;;;;;;;;6200654;23;20012;-75
2022/11/12 11:28:23;;;;;;;4.47;3.45;;;;;;;;;;6200767;23;20000;-75
2022/11/12 11:30:56;;;;;;;4.15;3.35;;;;;;;;;;6198709;23;20080;-75
2022/11/12 11:33:31;;;;;;;4.97;3.70;;;;;;;;;;6197079;23;20001;-76
2022/11/12 11:36:09;;;;;;;5.82;3.70;;;;;;;;;;6194985;23;20046;-76
2022/11/12 11:38:37;;;;;;;4.03;3.55;;;;;;;;;;6198579;23;20001;-74
2022/11/12 11:41:16;;;;;;;5.13;3.97;;;;;;;;;;6198267;23;20005;-74
2022/11/12 11:44:05;;;;;;;8.13;4.13;;;;;;;;;;6196643;23;20895;-74
2022/11/12 11:46:40;;;;;;;4.28;3.38;;;;;;;;;;6198757;23;20012;-75
2022/11/12 11:49:25;;;;;;;4.93;3.47;;;;;;;;;;6197571;23;19996;-75
2022/11/12 11:51:57;;;;;;;5.68;3.95;;;;;;;;;;6198317;23;20013;-75
2022/11/12 11:54:42;;;;;;;5.72;4.18;;;;;;;;;;6197647;23;19997;-75
2022/11/12 11:57:15;;;;;;;6.80;4.30;;;;;;;;;;6196154;23;20009;-75
2022/11/12 11:59:56;;;;;;;4.53;3.72;;;;;;;;;;6198010;23;20015;-75
2022/11/12 12:02:32;;;;;;;6.43;4.00;;;;;;;;;;6198849;23;20008;-76
2022/11/12 12:05:17;;;;;;;3.97;3.38;;;;;;;;;;6197627;23;20005;-74
2022/11/12 12:07:43;;;;;;;6.55;4.40;;;;;;;;;;6197683;23;20008;-73
2022/11/12 12:10:15;;;;;;;5.22;3.80;;;;;;;;;;6198660;23;20024;-72
2022/11/12 12:12:49;;;;;;;4.72;3.55;;;;;;;;;;6196532;23;20786;-74
2022/11/12 12:15:24;;;;;;;5.97;4.47;;;;;;;;;;6198513;23;20683;-75
2022/11/12 12:18:09;;;;;;;4.38;3.97;;;;;;;;;;6198140;23;20357;-76
2022/11/12 12:20:41;;;;;;;7.32;3.50;;;;;;;;;;6198039;23;20504;-75
2022/11/12 12:23:24;;;;;;;6.57;3.92;;;;;;;;;;6196063;23;20063;-75
2022/11/12 12:25:52;;;;;;;7.20;3.53;;;;;;;;;;6197648;23;20013;-75
2022/11/12 12:28:21;;;;;;;20.42;10.40;;;;;;;;;;6198314;23;20489;-75
2022/11/12 12:30:50;;;;;;;38.53;18.27;;;;;;;;;;6197642;23;20004;-74
2022/11/12 12:33:20;;;;;;;29.88;12.23;;;;;;;;;;6196241;23;20004;-75
2022/11/12 12:35:49;;;;;;;24.83;11.88;;;;;;;;;;6195140;23;20098;-76
2022/11/12 12:38:22;;;;;;;32.38;15.10;;;;;;;;;;6197026;23;20000;-74
2022/11/12 12:41:15;;;;;;;22.50;10.35;;;;;;;;;;6169838;23;20508;-75
2022/11/12 12:43:52;;;;;;;12.75;4.50;;;;;;;;;;6191302;23;20012;-74
2022/11/12 12:46:21;;;;;;;7.60;2.72;;;;;;;;;;6198285;23;20376;-76
2022/11/12 12:48:50;;;;;;;26.85;12.45;;;;;;;;;;6197721;23;20007;-75
2022/11/12 12:51:16;;;;;;;16.92;8.45;;;;;;;;;;6195989;23;20468;-74
2022/11/12 12:53:42;;;;;;;17.75;7.00;;;;;;;;;;6196451;23;20421;-75
2022/11/12 12:56:14;;;;;;;20.00;10.88;;;;;;;;;;6195024;23;20535;-75
2022/11/12 12:58:45;;;;;;;9.40;5.18;;;;;;;;;;6165164;23;20004;-76
2022/11/12 13:01:21;;;;;;;11.27;6.82;;;;;;;;;;6195645;23;20361;-76
2022/11/12 13:03:52;;;;;;;6.82;3.45;;;;;;;;;;6196313;23;20011;-82
2022/11/12 13:06:23;;;;;;;12.55;5.78;;;;;;;;;;6197195;23;20084;-78
2022/11/12 13:08:53;;;;;;;21.10;10.10;;;;;;;;;;6195503;23;20075;-77
2022/11/12 13:14:38;;;;;;;16.88;7.10;;;;;;;;;;6197350;23;20067;-76
2022/11/12 13:17:07;;;;;;;7.32;2.60;;;;;;;;;;6196500;23;20004;-76
2022/11/12 13:19:33;;;;;;;5.20;3.25;;;;;;;;;;6196136;23;20028;-75
2022/11/12 13:22:25;;;;;;;7.65;3.15;;;;;;;;;;6195699;23;20088;-75
2022/11/12 13:24:51;;;;;;;;;;;;;;;;;;6143480;23;20139;-76
2022/11/12 13:27:37;;;;;;;4.55;2.60;;;;;;;;;;6194595;23;19904;-75
2022/11/12 13:30:06;;;;;;;5.82;2.33;;;;;;;;;;6195831;23;20050;-74
2022/11/12 13:32:33;;;;;;;8.90;2.55;;;;;;;;;;6194324;23;20007;-74
2022/11/12 13:35:11;;;;;;;4.53;2.40;;;;;;;;;;6198462;23;20016;-75
2022/11/12 13:37:43;;;;;;;5.65;2.80;;;;;;;;;;6198988;23;20055;-76
2022/11/12 13:40:13;;;;;;;8.60;2.10;;;;;;;;;;6193121;23;20001;-75
2022/11/12 13:42:48;;;;;;;3.85;1.80;;;;;;;;;;6193352;23;20287;-74
2022/11/12 13:45:19;;;;;;;4.78;1.77;;;;;;;;;;6196575;23;20460;-76
2022/11/12 13:47:45;;;;;;;4.55;1.73;;;;;;;;;;6196599;23;20026;-76
2022/11/12 13:50:19;;;;;;;5.47;1.70;;;;;;;;;;6194240;23;20015;-75
2022/11/12 13:52:46;;;;;;;5.38;2.25;;;;;;;;;;6196287;23;20014;-75
2022/11/12 13:55:14;;;;;;;4.88;2.22;;;;;;;;;;6195981;23;20034;-76
2022/11/12 13:57:40;;;;;;;4.03;2.03;;;;;;;;;;6196323;23;20007;-74
2022/11/12 14:00:19;;;;;;;4.72;1.85;;;;;;;;;;6195742;23;20012;-75
2022/11/12 14:02:48;;;;;;;4.40;1.63;;;;;;;;;;6194723;23;20000;-74
2022/11/12 14:05:16;;;;;;;4.40;1.88;;;;;;;;;;6195197;23;20011;-75
2022/11/12 14:07:52;;;;;;;3.70;1.75;;;;;;;;;;6196366;23;20047;-74
2022/11/12 14:10:44;;;;;;;5.50;2.35;;;;;;;;;;6196635;23;20020;-76
2022/11/12 14:13:10;;;;;;;8.32;2.08;;;;;;;;;;6192344;23;20005;-76
2022/11/12 14:15:57;;;;;;;3.15;1.98;;;;;;;;;;6196866;23;20715;-74
2022/11/12 14:18:26;;;;;;;6.47;2.15;;;;;;;;;;6198284;23;20261;-76
2022/11/12 14:20:52;;;;;;;4.60;2.38;;;;;;;;;;6198804;23;20031;-76
2022/11/12 14:23:22;;;;;;;5.18;1.75;;;;;;;;;;6198255;23;20009;-75
2022/11/12 14:25:52;;;;;;;5.65;1.70;;;;;;;;;;6195292;23;20005;-75
2022/11/12 14:28:29;;;;;;;6.57;2.03;;;;;;;;;;6197486;23;20087;-75
2022/11/12 14:30:56;;;;;;;6.65;2.42;;;;;;;;;;6198150;23;20005;-76
2022/11/12 14:33:25;;;;;;;5.82;1.90;;;;;;;;;;6196154;23;20020;-76
2022/11/12 14:35:52;;;;;;;5.60;1.85;;;;;;;;;;6197701;23;20457;-76
2022/11/12 14:38:21;;;;;;;3.03;1.40;;;;;;;;;;6198923;23;20084;-75
2022/11/12 14:40:55;;;;;;;3.50;1.90;;;;;;;;;;6197929;23;20196;-76
2022/11/12 14:43:36;;;;;;;6.22;2.20;;;;;;;;;;6196353;23;20408;-76
2022/11/12 14:46:03;;;;;;;7.03;2.10;;;;;;;;;;6195352;23;20124;-75
2022/11/12 14:48:34;;;;;;;7.57;1.73;;;;;;;;;;6199284;23;20476;-75
2022/11/12 14:51:05;;;;;;;4.25;1.95;;;;;;;;;;6198383;23;20028;-74
2022/11/12 14:53:32;;;;;;;5.47;1.90;;;;;;;;;;6198840;23;20223;-75
2022/11/12 14:55:59;;;;;;;5.38;1.98;;;;;;;;;;6195620;23;20012;-74
2022/11/12 14:58:26;;;;;;;6.82;1.90;;;;;;;;;;6198553;23;20011;-76
2022/11/12 15:00:53;;;;;;;8.50;1.98;;;;;;;;;;6197802;23;20004;-74
2022/11/12 15:03:22;;;;;;;4.07;2.03;;;;;;;;;;6195941;23;20083;-76
2022/11/12 15:05:54;;;;;;;3.75;1.73;;;;;;;;;;6197782;23;20000;-76
2022/11/12 15:08:31;;;;;;;4.53;1.75;;;;;;;;;;6197908;23;20103;-76
2022/11/12 15:11:13;;;;;;;3.47;1.75;;;;;;;;;;6197653;23;20074;-76
2022/11/12 15:13:42;;;;;;;4.07;2.20;;;;;;;;;;6198087;23;20058;-75
2022/11/12 15:16:09;;;;;;;4.80;1.75;;;;;;;;;;6197116;23;20044;-74
2022/11/12 15:18:36;;;;;;;3.40;1.50;;;;;;;;;;6195682;23;20525;-75
2022/11/12 15:21:11;;;;;;;3.58;1.70;;;;;;;;;;6197463;23;20365;-75
2022/11/12 15:23:46;;;;;;;2.53;1.50;;;;;;;;;;6197200;23;20024;-75
2022/11/12 15:26:14;;;;;;;3.10;2.20;;;;;;;;;;6197081;23;20005;-75